createdAt,value
2023-03-06T00:00:41.767Z,5.36
2023-03-06T00:02:45.361Z,5.36
2023-03-06T00:04:48.220Z,5.29
2023-03-06T00:06:52.738Z,5.27
2023-03-06T00:08:55.615Z,5.28
2023-03-06T00:10:58.820Z,5.27
2023-03-06T00:13:03.353Z,5.27
2023-03-06T00:15:07.366Z,5.28
2023-03-06T00:17:10.130Z,5.30
2023-03-06T00:19:12.912Z,5.31
2023-03-06T00:21:15.910Z,5.31
2023-03-06T00:23:20.097Z,5.30
2023-03-06T00:25:23.219Z,5.28
2023-03-06T00:27:26.317Z,5.29
2023-03-06T00:29:29.154Z,5.22
2023-03-06T00:31:32.006Z,5.20
2023-03-06T00:33:34.856Z,5.20
2023-03-06T00:35:39.410Z,5.23
2023-03-06T00:37:42.538Z,5.24
2023-03-06T00:39:49.431Z,5.27
2023-03-06T00:41:52.277Z,5.27
2023-03-06T00:43:55.064Z,5.29
2023-03-06T00:45:57.884Z,5.30
2023-03-06T00:48:00.848Z,5.34
2023-03-06T00:50:04.121Z,5.30
2023-03-06T00:52:06.941Z,5.29
2023-03-06T00:54:09.749Z,5.20
2023-03-06T00:56:13.949Z,5.16
2023-03-06T00:58:17.386Z,5.16
2023-03-06T01:00:20.757Z,5.18
2023-03-06T01:02:25.758Z,5.22
2023-03-06T01:04:30.888Z,5.20
2023-03-06T01:06:33.686Z,5.20
2023-03-06T01:08:39.433Z,5.19
2023-03-06T01:10:42.244Z,5.16
2023-03-06T01:12:46.972Z,5.13
2023-03-06T01:14:49.814Z,5.09
2023-03-06T01:16:52.669Z,5.12
2023-03-06T01:18:55.454Z,5.13
2023-03-06T01:20:59.052Z,5.09
2023-03-06T01:23:01.896Z,5.10
2023-03-06T01:25:05.062Z,5.06
2023-03-06T01:27:07.908Z,5.09
2023-03-06T01:29:12.072Z,5.15
2023-03-06T01:31:16.112Z,5.11
2023-03-06T01:33:19.008Z,5.12
2023-03-06T01:35:21.780Z,5.13
2023-03-06T01:37:24.873Z,5.11
2023-03-06T01:39:29.183Z,5.13
2023-03-06T01:41:32.904Z,5.13
2023-03-06T01:43:37.614Z,5.14
2023-03-06T01:45:58.961Z,5.00
2023-03-06T01:48:03.312Z,4.90
2023-03-06T01:50:09.381Z,4.93
2023-03-06T01:52:16.272Z,4.98
2023-03-06T01:54:23.646Z,4.98
2023-03-06T01:56:27.317Z,4.99
2023-03-06T01:58:30.343Z,4.97
2023-03-06T02:00:34.407Z,5.02
2023-03-06T02:02:39.358Z,4.95
2023-03-06T02:04:44.976Z,4.92
2023-03-06T02:06:48.799Z,4.91
2023-03-06T02:08:53.750Z,4.94
2023-03-06T02:10:58.857Z,4.87
2023-03-06T02:13:02.189Z,4.90
2023-03-06T02:15:05.828Z,4.92
2023-03-06T02:17:11.183Z,4.96
2023-03-06T02:19:28.010Z,4.97
2023-03-06T02:21:35.758Z,4.99
2023-03-06T02:23:49.901Z,5.01
2023-03-06T02:25:55.383Z,4.96
2023-03-06T02:27:58.161Z,4.90
2023-03-06T02:30:01.021Z,4.71
2023-03-06T02:32:04.620Z,4.69
2023-03-06T02:34:29.640Z,4.70
2023-03-06T02:36:34.563Z,4.75
2023-03-06T02:38:41.593Z,4.76
2023-03-06T02:40:48.670Z,4.83
2023-03-06T02:42:56.223Z,4.82
2023-03-06T02:45:03.479Z,4.83
2023-03-06T02:47:07.700Z,4.79
2023-03-06T02:49:10.925Z,4.76
2023-03-06T02:51:13.823Z,4.72
2023-03-06T02:53:18.832Z,4.75
2023-03-06T02:55:21.527Z,4.72
2023-03-06T02:57:24.353Z,4.72
2023-03-06T02:59:28.703Z,4.75
2023-03-06T03:01:32.019Z,4.77
2023-03-06T03:03:35.068Z,4.83
2023-03-06T03:05:38.552Z,4.82
2023-03-06T03:07:48.807Z,4.81
2023-03-06T03:09:51.687Z,4.85
2023-03-06T03:11:55.377Z,4.87
2023-03-06T03:13:58.182Z,4.89
2023-03-06T03:16:07.438Z,4.89
2023-03-06T03:18:11.930Z,4.92
2023-03-06T03:20:17.912Z,4.89
2023-03-06T03:22:21.366Z,4.90
2023-03-06T03:24:24.749Z,4.89
2023-03-06T03:26:27.876Z,4.91
2023-03-06T03:28:36.651Z,4.87
2023-03-06T03:30:40.879Z,4.82
2023-03-06T03:32:46.275Z,4.83
2023-03-06T03:34:49.418Z,4.79
2023-03-06T03:36:53.430Z,4.71
2023-03-06T03:38:57.565Z,4.62
2023-03-06T03:41:02.031Z,4.58
2023-03-06T03:43:05.527Z,4.61
2023-03-06T03:45:09.631Z,4.58
2023-03-06T03:47:12.524Z,4.67
2023-03-06T03:49:16.750Z,4.68
2023-03-06T03:51:20.533Z,4.67
2023-03-06T03:53:27.655Z,4.67
2023-03-06T03:55:31.021Z,4.67
2023-03-06T03:57:34.122Z,4.68
2023-03-06T03:59:37.477Z,4.67
2023-03-06T04:01:47.343Z,4.65
2023-03-06T04:03:50.150Z,4.65
2023-03-06T04:05:55.471Z,4.68
2023-03-06T04:07:58.335Z,4.70
2023-03-06T04:10:01.121Z,4.69
2023-03-06T04:12:06.684Z,4.68
2023-03-06T04:14:11.277Z,4.63
2023-03-06T04:16:14.183Z,4.64
2023-03-06T04:18:17.481Z,4.67
2023-03-06T04:20:21.394Z,4.72
2023-03-06T04:22:26.239Z,4.77
2023-03-06T04:24:29.109Z,4.74
2023-03-06T04:26:31.900Z,4.70
2023-03-06T04:28:35.114Z,4.68
2023-03-06T04:30:38.097Z,4.69
2023-03-06T04:32:41.245Z,4.70
2023-03-06T04:34:44.372Z,4.69
2023-03-06T04:36:47.193Z,4.68
2023-03-06T04:38:53.686Z,4.66
2023-03-06T04:40:56.779Z,4.64
2023-03-06T04:43:01.662Z,4.69
2023-03-06T04:45:04.676Z,4.71
2023-03-06T04:47:07.951Z,4.73
2023-03-06T04:49:10.959Z,4.68
2023-03-06T04:51:14.726Z,4.65
2023-03-06T04:53:19.588Z,4.67
2023-03-06T04:55:23.996Z,4.67
2023-03-06T04:57:27.098Z,4.62
2023-03-06T04:59:30.138Z,4.61
2023-03-06T05:01:33.020Z,4.67
2023-03-06T05:03:35.956Z,4.72
2023-03-06T05:05:38.851Z,4.62
2023-03-06T05:07:42.469Z,4.62
2023-03-06T05:09:45.268Z,4.64
2023-03-06T05:11:49.369Z,4.65
2023-03-06T05:13:52.662Z,4.67
2023-03-06T05:15:55.831Z,4.67
2023-03-06T05:17:58.610Z,4.68
2023-03-06T05:20:01.508Z,4.71
2023-03-06T05:22:04.406Z,4.72
2023-03-06T05:24:19.468Z,4.74
2023-03-06T05:26:22.293Z,4.72
2023-03-06T05:28:26.897Z,4.69
2023-03-06T05:30:29.641Z,4.67
2023-03-06T05:32:34.471Z,4.69
2023-03-06T05:34:38.284Z,4.66
2023-03-06T05:36:41.352Z,4.70
2023-03-06T05:38:44.130Z,4.71
2023-03-06T05:40:47.258Z,4.67
2023-03-06T05:42:50.103Z,4.66
2023-03-06T05:44:54.281Z,4.69
2023-03-06T05:46:57.074Z,4.63
2023-03-06T05:48:59.840Z,4.60
2023-03-06T05:51:03.583Z,4.60
2023-03-06T05:53:06.581Z,4.62
2023-03-06T05:55:12.143Z,4.65
2023-03-06T05:57:14.921Z,4.63
2023-03-06T05:59:17.742Z,4.67
2023-03-06T06:01:22.214Z,4.66
2023-03-06T06:03:25.598Z,4.66
2023-03-06T06:05:28.531Z,4.64
2023-03-06T06:07:32.401Z,4.67
2023-03-06T06:09:35.168Z,4.64
2023-03-06T06:11:37.981Z,4.59
2023-03-06T06:13:41.691Z,4.59
2023-03-06T06:15:44.532Z,4.62
2023-03-06T06:17:48.727Z,4.60
2023-03-06T06:19:51.675Z,4.57
2023-03-06T06:21:55.249Z,4.55
2023-03-06T06:23:58.005Z,4.57
2023-03-06T06:26:01.131Z,4.60
2023-03-06T06:28:04.528Z,4.59
2023-03-06T06:30:08.757Z,4.60
2023-03-06T06:32:11.622Z,4.56
2023-03-06T06:34:15.844Z,4.60
2023-03-06T06:36:21.254Z,4.59
2023-03-06T06:38:24.059Z,4.62
2023-03-06T06:40:27.521Z,4.66
2023-03-06T06:42:36.285Z,4.67
2023-03-06T06:44:41.930Z,4.67
2023-03-06T06:49:08.727Z,4.62
2023-03-06T06:51:12.840Z,4.66
2023-03-06T06:53:15.579Z,4.63
2023-03-06T06:55:18.671Z,4.61
2023-03-06T06:57:21.770Z,4.57
2023-03-06T06:59:24.599Z,4.58
2023-03-06T07:01:27.602Z,4.58
2023-03-06T07:03:30.448Z,4.68
2023-03-06T07:05:33.274Z,4.75
2023-03-06T07:07:38.943Z,4.66
2023-03-06T07:09:41.751Z,4.63
2023-03-06T07:11:44.681Z,4.59
2023-03-06T07:13:48.402Z,4.62
2023-03-06T07:15:51.248Z,4.55
2023-03-06T07:17:54.162Z,4.52
2023-03-06T07:19:57.023Z,4.54
2023-03-06T07:22:00.199Z,4.53
2023-03-06T07:24:04.669Z,4.57
2023-03-06T07:26:07.573Z,4.48
2023-03-06T07:28:10.442Z,4.46
2023-03-06T07:30:14.377Z,4.49
2023-03-06T07:32:17.297Z,4.51
2023-03-06T07:34:20.049Z,4.59
2023-03-06T07:36:23.507Z,4.62
2023-03-06T07:38:26.307Z,4.69
2023-03-06T07:40:30.567Z,4.78
2023-03-06T07:42:33.348Z,4.84
2023-03-06T07:44:38.538Z,4.86
2023-03-06T07:46:41.462Z,4.94
2023-03-06T07:48:45.400Z,5.05
2023-03-06T07:50:56.167Z,5.15
2023-03-06T07:52:58.920Z,5.22
2023-03-06T07:55:01.762Z,5.11
2023-03-06T07:57:06.046Z,5.07
2023-03-06T07:59:08.836Z,5.03
2023-03-06T08:01:13.421Z,5.09
2023-03-06T08:03:17.150Z,5.13
2023-03-06T08:05:20.228Z,5.22
2023-03-06T08:07:23.228Z,5.32
2023-03-06T08:09:26.912Z,5.37
2023-03-06T08:11:31.396Z,5.51
2023-03-06T08:13:36.234Z,5.48
2023-03-06T08:15:38.948Z,5.34
2023-03-06T08:17:41.758Z,5.30
2023-03-06T08:19:44.539Z,5.30
2023-03-06T08:21:47.339Z,5.37
2023-03-06T08:23:50.489Z,5.37
2023-03-06T08:25:57.067Z,5.44
2023-03-06T08:28:00.471Z,5.40
2023-03-06T08:30:05.345Z,5.40
2023-03-06T08:32:12.319Z,5.50
2023-03-06T08:34:17.454Z,5.44
2023-03-06T08:36:20.542Z,5.41
2023-03-06T08:38:23.411Z,5.42
2023-03-06T08:40:27.003Z,5.44
2023-03-06T08:42:29.773Z,5.44
2023-03-06T08:44:32.592Z,5.35
2023-03-06T08:46:37.739Z,5.35
2023-03-06T08:48:40.944Z,5.41
2023-03-06T08:50:43.777Z,5.45
2023-03-06T08:52:46.608Z,5.48
2023-03-06T08:54:49.420Z,5.47
2023-03-06T08:56:52.238Z,5.30
2023-03-06T08:58:55.703Z,5.21
2023-03-06T09:00:59.080Z,5.20
2023-03-06T09:03:03.327Z,5.24
2023-03-06T09:05:07.311Z,5.09
2023-03-06T09:07:10.149Z,5.00
2023-03-06T09:09:13.857Z,5.07
2023-03-06T09:11:17.138Z,5.19
2023-03-06T09:13:19.969Z,5.24
2023-03-06T09:15:24.262Z,5.39
2023-03-06T09:17:27.053Z,5.46
2023-03-06T09:19:31.211Z,5.50
2023-03-06T09:21:34.304Z,5.42
2023-03-06T09:23:39.390Z,5.46
2023-03-06T09:25:42.245Z,5.36
2023-03-06T09:27:45.387Z,5.33
2023-03-06T09:29:48.199Z,5.30
2023-03-06T09:31:51.020Z,5.25
2023-03-06T09:33:53.799Z,5.19
2023-03-06T09:35:58.527Z,5.16
2023-03-06T09:38:01.326Z,5.14
2023-03-06T09:40:06.664Z,5.12
2023-03-06T09:42:15.116Z,5.25
2023-03-06T09:44:20.986Z,5.38
2023-03-06T09:46:30.424Z,5.49
2023-03-06T09:48:41.491Z,5.53
2023-03-06T09:50:47.046Z,5.59
2023-03-06T09:53:04.021Z,5.67
2023-03-06T09:55:13.435Z,5.51
2023-03-06T09:57:22.699Z,5.34
2023-03-06T09:59:27.032Z,5.30
2023-03-06T10:01:34.921Z,5.37
2023-03-06T10:03:44.794Z,5.32
2023-03-06T10:05:51.292Z,5.40
2023-03-06T10:08:01.569Z,5.47
2023-03-06T10:10:06.648Z,5.46
2023-03-06T10:12:23.680Z,5.53
2023-03-06T10:14:35.895Z,5.64
2023-03-06T10:16:38.828Z,5.81
2023-03-06T10:18:41.914Z,5.79
2023-03-06T10:20:50.572Z,5.77
2023-03-06T10:23:24.741Z,5.80
2023-03-06T10:25:30.526Z,5.82
2023-03-06T10:27:40.520Z,5.83
2023-03-06T10:30:02.652Z,5.94
2023-03-06T10:32:13.404Z,6.08
2023-03-06T10:34:22.123Z,6.23
2023-03-06T10:36:27.574Z,6.32
2023-03-06T10:38:37.672Z,6.31
2023-03-06T10:40:48.400Z,6.37
2023-03-06T10:43:01.531Z,6.30
2023-03-06T10:45:14.709Z,6.36
2023-03-06T10:47:30.331Z,6.44
2023-03-06T10:49:35.201Z,6.35
2023-03-06T10:51:38.329Z,6.25
2023-03-06T10:53:52.089Z,6.22
2023-03-06T10:55:57.263Z,5.91
2023-03-06T10:58:18.019Z,5.77
2023-03-06T11:00:30.905Z,5.77
2023-03-06T11:02:36.366Z,5.85
2023-03-06T11:04:41.912Z,5.85
2023-03-06T11:06:45.193Z,5.78
2023-03-06T11:08:49.387Z,5.85
2023-03-06T11:11:00.789Z,5.93
2023-03-06T11:13:07.948Z,5.95
2023-03-06T11:15:22.198Z,6.10
2023-03-06T11:17:29.206Z,6.21
2023-03-06T11:19:32.734Z,6.26
2023-03-06T11:21:37.554Z,6.31
2023-03-06T11:23:44.732Z,6.32
2023-03-06T11:25:53.908Z,6.36
2023-03-06T11:28:00.521Z,6.11
2023-03-06T11:30:06.074Z,5.95
2023-03-06T11:32:15.780Z,5.79
2023-03-06T11:34:27.602Z,5.72
2023-03-06T11:36:34.894Z,5.62
2023-03-06T11:38:45.055Z,5.75
2023-03-06T11:40:54.016Z,5.80
2023-03-06T11:43:04.345Z,5.85
2023-03-06T11:45:22.562Z,5.75
2023-03-06T11:47:30.350Z,5.66
2023-03-06T11:49:40.513Z,5.60
2023-03-06T11:51:49.079Z,5.70
2023-03-06T11:53:51.989Z,5.69
2023-03-06T11:56:02.271Z,5.67
2023-03-06T11:58:37.120Z,5.66
2023-03-06T12:00:49.371Z,5.64
2023-03-06T12:03:48.126Z,5.72
2023-03-06T12:06:01.819Z,5.75
2023-03-06T12:08:20.530Z,5.84
2023-03-06T12:10:29.857Z,5.72
2023-03-06T12:13:04.166Z,5.59
2023-03-06T12:15:20.170Z,5.34
2023-03-06T12:17:32.045Z,5.32
2023-03-06T12:19:49.860Z,5.36
2023-03-06T12:22:06.785Z,5.32
2023-03-06T12:24:25.684Z,5.32
2023-03-06T12:26:50.586Z,5.47
2023-03-06T12:29:12.223Z,5.64
2023-03-06T12:31:40.120Z,5.67
2023-03-06T12:33:53.647Z,5.71
2023-03-06T12:36:09.508Z,5.78
2023-03-06T12:38:30.632Z,5.86
2023-03-06T12:40:48.232Z,5.92
2023-03-06T12:43:11.478Z,5.97
2023-03-06T12:45:30.688Z,6.08
2023-03-06T12:47:40.714Z,6.14
2023-03-06T12:49:47.358Z,6.15
2023-03-06T12:51:50.608Z,6.33
2023-03-06T12:53:54.380Z,6.26
2023-03-06T12:55:59.584Z,6.35
2023-03-06T12:58:32.164Z,6.47
2023-03-06T13:01:04.274Z,6.46
2023-03-06T13:03:18.076Z,6.55
2023-03-06T13:05:32.395Z,6.55
2023-03-06T13:07:52.590Z,6.48
2023-03-06T13:10:06.636Z,6.45
2023-03-06T13:12:25.553Z,6.39
2023-03-06T13:14:54.096Z,6.31
2023-03-06T13:17:27.014Z,6.26
2023-03-06T13:19:29.890Z,6.20
2023-03-06T13:22:10.495Z,6.30
2023-03-06T13:24:18.951Z,6.18
2023-03-06T13:26:57.380Z,6.07
2023-03-06T13:29:00.240Z,6.03
2023-03-06T13:31:03.178Z,6.05
2023-03-06T13:33:39.390Z,6.07
2023-03-06T13:35:53.832Z,6.08
2023-03-06T13:37:57.488Z,6.01
2023-03-06T13:40:27.383Z,6.00
2023-03-06T13:42:32.336Z,5.99
2023-03-06T13:44:44.522Z,5.95
2023-03-06T13:46:58.434Z,6.02
2023-03-06T13:49:12.300Z,5.86
2023-03-06T13:51:24.944Z,5.63
2023-03-06T13:54:12.751Z,5.75
2023-03-06T13:56:38.896Z,5.82
2023-03-06T13:58:58.380Z,5.81
2023-03-06T14:01:24.271Z,5.56
2023-03-06T14:03:37.095Z,5.48
2023-03-06T14:05:44.412Z,5.51
2023-03-06T14:08:02.174Z,5.60
2023-03-06T14:10:26.515Z,5.54
2023-03-06T14:12:33.975Z,5.49
2023-03-06T14:14:41.139Z,5.62
2023-03-06T14:16:51.353Z,5.48
2023-03-06T14:18:56.523Z,5.30
2023-03-06T14:21:01.849Z,5.22
2023-03-06T14:23:24.702Z,5.18
2023-03-06T14:25:30.451Z,5.31
2023-03-06T14:27:45.602Z,5.34
2023-03-06T14:29:49.706Z,5.21
2023-03-06T14:31:54.428Z,5.05
2023-03-06T14:33:59.307Z,5.12
2023-03-06T14:36:05.041Z,5.18
2023-03-06T14:38:08.058Z,5.28
2023-03-06T14:40:14.744Z,5.14
2023-03-06T14:42:20.382Z,5.13
2023-03-06T14:44:26.477Z,5.12
2023-03-06T14:46:29.408Z,5.11
2023-03-06T14:48:41.823Z,5.10
2023-03-06T14:50:49.935Z,5.06
2023-03-06T14:52:56.426Z,5.05
2023-03-06T14:54:59.198Z,5.19
2023-03-06T14:57:05.905Z,5.34
2023-03-06T14:59:16.361Z,5.40
2023-03-06T15:01:27.496Z,5.37
2023-03-06T15:03:42.482Z,5.38
2023-03-06T15:05:47.052Z,5.17
2023-03-06T15:07:51.387Z,5.25
2023-03-06T15:09:55.304Z,5.26
2023-03-06T15:12:00.194Z,5.20
2023-03-06T15:14:05.241Z,5.12
2023-03-06T15:16:10.158Z,5.23
2023-03-06T15:18:29.667Z,5.36
2023-03-06T15:20:54.565Z,5.16
2023-03-06T15:22:57.403Z,5.06
2023-03-06T15:25:22.317Z,5.13
2023-03-06T15:27:31.236Z,5.14
2023-03-06T15:29:39.758Z,5.16
2023-03-06T15:31:44.209Z,5.18
2023-03-06T15:34:05.132Z,5.14
2023-03-06T15:36:20.683Z,5.16
2023-03-06T15:38:33.683Z,5.14
2023-03-06T15:40:36.668Z,5.16
2023-03-06T15:42:39.638Z,5.22
2023-03-06T15:44:43.854Z,5.21
2023-03-06T15:46:48.464Z,5.16
2023-03-06T15:48:55.406Z,5.12
2023-03-06T15:50:58.317Z,5.27
2023-03-06T15:53:01.122Z,5.28
2023-03-06T15:55:04.059Z,5.24
2023-03-06T15:57:14.953Z,5.36
2023-03-06T15:59:23.296Z,5.48
2023-03-06T16:01:28.048Z,5.35
2023-03-06T16:03:30.880Z,5.25
2023-03-06T16:05:33.616Z,5.24
2023-03-06T16:07:36.370Z,5.22
2023-03-06T16:09:39.191Z,5.25
2023-03-06T16:11:44.975Z,5.14
2023-03-06T16:13:47.851Z,5.18
2023-03-06T16:15:51.771Z,5.16
2023-03-06T16:17:56.218Z,5.09
2023-03-06T16:19:59.001Z,5.20
2023-03-06T16:22:01.854Z,5.20
2023-03-06T16:24:04.789Z,5.11
2023-03-06T16:26:16.713Z,5.03
2023-03-06T16:28:19.676Z,4.98
2023-03-06T16:30:24.428Z,4.94
2023-03-06T16:32:28.808Z,5.02
2023-03-06T16:34:33.047Z,5.14
2023-03-06T16:36:35.889Z,5.24
2023-03-06T16:38:38.720Z,5.19
2023-03-06T16:40:42.513Z,5.17
2023-03-06T16:42:45.317Z,5.02
2023-03-06T16:44:48.148Z,4.99
2023-03-06T16:46:51.666Z,5.02
2023-03-06T16:48:54.491Z,5.01
2023-03-06T16:50:58.768Z,4.94
2023-03-06T16:53:01.613Z,4.88
2023-03-06T16:55:04.440Z,4.89
2023-03-06T16:57:07.293Z,4.92
2023-03-06T16:59:11.044Z,4.90
2023-03-06T17:01:17.111Z,4.83
2023-03-06T17:03:20.024Z,4.87
2023-03-06T17:05:22.894Z,4.84
2023-03-06T17:07:27.072Z,4.85
2023-03-06T17:09:29.927Z,4.82
2023-03-06T17:11:32.817Z,4.78
2023-03-06T17:13:35.769Z,4.74
2023-03-06T17:15:38.617Z,4.64
2023-03-06T17:17:41.540Z,4.51
2023-03-06T17:19:47.671Z,4.59
2023-03-06T17:21:50.549Z,4.54
2023-03-06T17:23:55.446Z,4.45
2023-03-06T17:26:07.991Z,4.43
2023-03-06T17:28:11.428Z,4.46
2023-03-06T17:30:14.791Z,4.46
2023-03-06T17:32:17.618Z,4.52
2023-03-06T17:34:22.057Z,4.61
2023-03-06T17:36:29.467Z,4.65
2023-03-06T17:38:32.380Z,4.64
2023-03-06T17:40:36.570Z,4.61
2023-03-06T17:42:39.451Z,4.49
2023-03-06T17:44:42.513Z,4.42
2023-03-06T17:46:45.436Z,4.39
2023-03-06T17:48:48.408Z,4.35
2023-03-06T17:50:55.506Z,4.31
2023-03-06T17:52:58.277Z,4.41
2023-03-06T17:55:01.263Z,4.35
2023-03-06T17:57:05.671Z,4.29
2023-03-06T17:59:12.518Z,4.32
2023-03-06T18:01:20.529Z,4.33
2023-03-06T18:03:23.621Z,4.40
2023-03-06T18:05:26.587Z,4.44
2023-03-06T18:07:29.412Z,4.35
2023-03-06T18:09:32.184Z,4.30
2023-03-06T18:11:35.044Z,4.43
2023-03-06T18:13:41.276Z,4.39
2023-03-06T18:15:45.332Z,4.35
2023-03-06T18:17:48.112Z,4.40
2023-03-06T18:19:52.027Z,4.49
2023-03-06T18:21:54.772Z,4.43
2023-03-06T18:23:58.619Z,4.42
2023-03-06T18:26:11.439Z,4.46
2023-03-06T18:28:14.485Z,4.52
2023-03-06T18:30:19.165Z,4.49
2023-03-06T18:32:22.309Z,4.63
2023-03-06T18:34:25.291Z,4.58
2023-03-06T18:36:29.927Z,4.64
2023-03-06T18:38:32.722Z,4.54
2023-03-06T18:40:35.679Z,4.57
2023-03-06T18:42:38.463Z,4.51
2023-03-06T18:44:41.405Z,4.46
2023-03-06T18:46:46.090Z,4.36
2023-03-06T18:48:48.948Z,4.30
2023-03-06T18:50:51.811Z,4.25
2023-03-06T18:52:54.614Z,4.32
2023-03-06T18:54:57.545Z,4.30
2023-03-06T18:57:00.670Z,4.27
2023-03-06T18:59:04.601Z,4.26
2023-03-06T19:01:08.501Z,4.28
2023-03-06T19:03:15.331Z,4.28
2023-03-06T19:05:18.316Z,4.29
2023-03-06T19:07:21.230Z,4.35
2023-03-06T19:09:24.477Z,4.33
2023-03-06T19:11:28.006Z,4.33
2023-03-06T19:13:30.963Z,4.34
2023-03-06T19:15:34.156Z,4.46
2023-03-06T19:17:37.667Z,4.43
2023-03-06T19:19:41.931Z,4.45
2023-03-06T19:21:45.841Z,4.44
2023-03-06T19:23:48.926Z,4.46
2023-03-06T19:25:58.741Z,4.53
2023-03-06T19:28:01.795Z,4.52
2023-03-06T19:30:06.161Z,4.47
2023-03-06T19:32:09.204Z,4.48
2023-03-06T19:34:12.162Z,4.57
2023-03-06T19:36:17.464Z,4.58
2023-03-06T19:38:20.231Z,4.52
2023-03-06T19:40:23.066Z,4.55
2023-03-06T19:42:26.169Z,4.58
2023-03-06T19:44:28.976Z,4.63
2023-03-06T19:46:32.283Z,4.64
2023-03-06T19:48:35.019Z,4.75
2023-03-06T19:50:37.854Z,4.72
2023-03-06T19:52:42.126Z,4.78
2023-03-06T19:54:46.982Z,4.89
2023-03-06T19:56:49.913Z,4.83
2023-03-06T19:58:52.892Z,4.85
2023-03-06T20:00:56.691Z,4.95
2023-03-06T20:03:00.084Z,4.93
2023-03-06T20:05:02.918Z,4.83
2023-03-06T20:07:06.136Z,4.84
2023-03-06T20:09:10.392Z,4.83
2023-03-06T20:11:17.244Z,4.77
2023-03-06T20:13:20.071Z,4.81
2023-03-06T20:15:23.242Z,4.82
2023-03-06T20:17:26.169Z,4.81
2023-03-06T20:19:29.198Z,4.81
2023-03-06T20:21:35.317Z,4.80
2023-03-06T20:23:38.105Z,4.78
2023-03-06T20:25:42.311Z,4.80
2023-03-06T20:27:45.114Z,4.78
2023-03-06T20:29:47.940Z,4.74
2023-03-06T20:31:53.169Z,4.82
2023-03-06T20:33:58.615Z,4.94
2023-03-06T20:36:01.512Z,4.99
2023-03-06T20:38:04.383Z,4.94
2023-03-06T20:40:08.660Z,4.96
2023-03-06T20:42:12.885Z,4.87
2023-03-06T20:44:18.666Z,5.00
2023-03-06T20:46:23.409Z,4.99
2023-03-06T20:48:26.263Z,4.98
2023-03-06T20:50:29.106Z,5.03
2023-03-06T20:52:31.940Z,4.97
2023-03-06T20:54:34.694Z,4.84
2023-03-06T20:56:39.653Z,4.86
2023-03-06T20:58:43.610Z,4.82
2023-03-06T21:00:46.432Z,4.84
2023-03-06T21:02:49.234Z,4.77
2023-03-06T21:04:52.126Z,4.71
2023-03-06T21:06:55.000Z,4.80
2023-03-06T21:08:58.516Z,4.90
2023-03-06T21:11:01.316Z,4.96
2023-03-06T21:13:04.159Z,4.88
2023-03-06T21:15:09.280Z,4.93
2023-03-06T21:17:13.839Z,4.86
2023-03-06T21:19:17.091Z,4.85
2023-03-06T21:21:25.012Z,4.91
2023-03-06T21:23:27.988Z,4.90
2023-03-06T21:25:30.847Z,4.86
2023-03-06T21:27:33.652Z,4.90
2023-03-06T21:29:36.445Z,4.98
2023-03-06T21:31:40.929Z,5.06
2023-03-06T21:33:44.622Z,5.10
2023-03-06T21:35:47.902Z,5.11
2023-03-06T21:37:50.855Z,5.06
2023-03-06T21:39:53.678Z,4.93
2023-03-06T21:41:56.537Z,4.85
2023-03-06T21:44:00.817Z,4.85
2023-03-06T21:46:03.706Z,4.76
2023-03-06T21:48:08.177Z,4.77
2023-03-06T21:50:25.841Z,4.68
2023-03-06T21:52:28.626Z,4.66
2023-03-06T21:54:31.384Z,4.67
2023-03-06T21:56:34.247Z,4.70
2023-03-06T21:58:37.523Z,4.71
2023-03-06T22:00:40.649Z,4.73
2023-03-06T22:02:45.532Z,4.85
2023-03-06T22:04:52.545Z,4.86
2023-03-06T22:06:55.324Z,4.97
2023-03-06T22:09:00.083Z,4.86
2023-03-06T22:11:06.514Z,4.77
2023-03-06T22:13:09.236Z,4.77
2023-03-06T22:15:12.566Z,4.80
2023-03-06T22:17:15.345Z,4.77
2023-03-06T22:19:18.104Z,4.73
2023-03-06T22:21:23.787Z,4.67
2023-03-06T22:23:26.655Z,4.66
2023-03-06T22:25:31.167Z,4.61
2023-03-06T22:27:33.966Z,4.62
2023-03-06T22:29:36.829Z,4.62
2023-03-06T22:31:40.467Z,4.64
2023-03-06T22:33:46.483Z,4.69
2023-03-06T22:35:49.318Z,4.65
2023-03-06T22:37:53.547Z,4.55
2023-03-06T22:39:56.346Z,4.43
2023-03-06T22:41:59.408Z,4.46
2023-03-06T22:44:03.264Z,4.53
2023-03-06T22:46:07.997Z,4.72
2023-03-06T22:48:11.425Z,4.69
2023-03-06T22:50:14.354Z,4.66
2023-03-06T22:52:19.442Z,4.63
2023-03-06T22:54:23.742Z,4.67
2023-03-06T22:56:26.707Z,4.70
2023-03-06T22:58:34.205Z,4.64
2023-03-06T23:00:37.044Z,4.61
2023-03-06T23:02:40.231Z,4.62
2023-03-06T23:04:43.101Z,4.68
2023-03-06T23:06:49.184Z,4.84
2023-03-06T23:08:53.551Z,4.92
2023-03-06T23:10:57.740Z,4.93
2023-03-06T23:13:19.145Z,4.86
2023-03-06T23:15:40.674Z,4.84
2023-03-06T23:18:02.357Z,4.77
2023-03-06T23:20:23.757Z,4.75
2023-03-06T23:22:45.107Z,4.69
2023-03-06T23:25:15.064Z,4.55
2023-03-06T23:27:19.541Z,4.81
2023-03-06T23:29:22.428Z,4.93
2023-03-06T23:31:28.478Z,4.97
2023-03-06T23:33:31.333Z,5.01
2023-03-06T23:35:34.609Z,5.04
2023-03-06T23:37:37.421Z,5.02
2023-03-06T23:39:40.380Z,5.06
2023-03-06T23:41:43.184Z,5.02
2023-03-06T23:43:48.414Z,5.06
2023-03-06T23:45:54.766Z,5.11
2023-03-06T23:47:58.050Z,5.11
2023-03-06T23:50:00.950Z,5.08
2023-03-06T23:52:04.308Z,5.14
2023-03-06T23:54:07.256Z,5.12
2023-03-06T23:56:10.731Z,5.17
2023-03-06T23:58:14.749Z,5.19
